sensor_id;sensor_type;location;lat;lon;timestamp;P1;durP1;ratioP1;P2;durP2;ratioP2
42084;SDS011;27746;52.228;20.890;2022-12-11T00:00:36;60.30;;;25.08;;
42084;SDS011;27746;52.228;20.890;2022-12-11T00:03:03;58.22;;;24.70;;
42084;SDS011;27746;52.228;20.890;2022-12-11T00:05:32;56.42;;;22.17;;
42084;SDS011;27746;52.228;20.890;2022-12-11T00:08:00;55.53;;;24.13;;
42084;SDS011;27746;52.228;20.890;2022-12-11T00:10:27;64.03;;;26.10;;
42084;SDS011;27746;52.228;20.890;2022-12-11T00:12:54;59.58;;;23.55;;
42084;SDS011;27746;52.228;20.890;2022-12-11T00:15:20;65.32;;;24.63;;
42084;SDS011;27746;52.228;20.890;2022-12-11T00:17:47;53.40;;;22.23;;
42084;SDS011;27746;52.228;20.890;2022-12-11T00:20:14;56.92;;;24.88;;
42084;SDS011;27746;52.228;20.890;2022-12-11T00:22:42;59.47;;;25.02;;
42084;SDS011;27746;52.228;20.890;2022-12-11T00:25:15;49.20;;;21.70;;
42084;SDS011;27746;52.228;20.890;2022-12-11T00:27:44;53.03;;;18.95;;
42084;SDS011;27746;52.228;20.890;2022-12-11T00:30:11;63.13;;;25.45;;
42084;SDS011;27746;52.228;20.890;2022-12-11T00:32:38;49.85;;;21.80;;
42084;SDS011;27746;52.228;20.890;2022-12-11T00:35:05;53.55;;;21.73;;
42084;SDS011;27746;52.228;20.890;2022-12-11T00:37:33;51.03;;;22.45;;
42084;SDS011;27746;52.228;20.890;2022-12-11T00:40:00;56.00;;;21.38;;
42084;SDS011;27746;52.228;20.890;2022-12-11T00:42:28;53.63;;;20.33;;
42084;SDS011;27746;52.228;20.890;2022-12-11T00:44:55;55.90;;;22.23;;
42084;SDS011;27746;52.228;20.890;2022-12-11T00:47:22;51.10;;;20.48;;
42084;SDS011;27746;52.228;20.890;2022-12-11T00:49:48;48.75;;;20.60;;
42084;SDS011;27746;52.228;20.890;2022-12-11T00:52:15;47.15;;;20.77;;
42084;SDS011;27746;52.228;20.890;2022-12-11T00:54:42;52.53;;;20.63;;
42084;SDS011;27746;52.228;20.890;2022-12-11T00:57:09;49.38;;;21.80;;
42084;SDS011;27746;52.228;20.890;2022-12-11T00:59:37;46.88;;;20.08;;
42084;SDS011;27746;52.228;20.890;2022-12-11T01:02:04;55.60;;;20.35;;
42084;SDS011;27746;52.228;20.890;2022-12-11T01:04:31;51.35;;;19.38;;
42084;SDS011;27746;52.228;20.890;2022-12-11T01:07:01;50.58;;;20.63;;
42084;SDS011;27746;52.228;20.890;2022-12-11T01:09:28;49.17;;;20.27;;
42084;SDS011;27746;52.228;20.890;2022-12-11T01:12:12;49.33;;;18.17;;
42084;SDS011;27746;52.228;20.890;2022-12-11T01:14:42;55.17;;;20.60;;
42084;SDS011;27746;52.228;20.890;2022-12-11T01:17:08;50.08;;;19.98;;
42084;SDS011;27746;52.228;20.890;2022-12-11T01:19:36;42.63;;;20.52;;
42084;SDS011;27746;52.228;20.890;2022-12-11T01:22:02;47.40;;;19.58;;
42084;SDS011;27746;52.228;20.890;2022-12-11T01:24:29;42.90;;;18.73;;
42084;SDS011;27746;52.228;20.890;2022-12-11T01:26:56;46.92;;;18.13;;
42084;SDS011;27746;52.228;20.890;2022-12-11T01:29:23;52.45;;;20.15;;
42084;SDS011;27746;52.228;20.890;2022-12-11T01:31:51;43.88;;;17.02;;
42084;SDS011;27746;52.228;20.890;2022-12-11T01:34:18;42.65;;;17.67;;
42084;SDS011;27746;52.228;20.890;2022-12-11T01:36:45;35.83;;;15.95;;
42084;SDS011;27746;52.228;20.890;2022-12-11T01:39:12;35.97;;;16.50;;
42084;SDS011;27746;52.228;20.890;2022-12-11T01:41:40;47.42;;;17.75;;
42084;SDS011;27746;52.228;20.890;2022-12-11T01:44:07;42.25;;;17.55;;
42084;SDS011;27746;52.228;20.890;2022-12-11T01:46:49;42.17;;;18.00;;
42084;SDS011;27746;52.228;20.890;2022-12-11T01:49:18;45.85;;;17.95;;
42084;SDS011;27746;52.228;20.890;2022-12-11T01:51:47;45.20;;;18.08;;
42084;SDS011;27746;52.228;20.890;2022-12-11T01:54:18;35.72;;;17.27;;
42084;SDS011;27746;52.228;20.890;2022-12-11T01:56:49;35.90;;;15.50;;
42084;SDS011;27746;52.228;20.890;2022-12-11T01:59:18;37.45;;;15.95;;
42084;SDS011;27746;52.228;20.890;2022-12-11T02:01:49;35.08;;;16.42;;
42084;SDS011;27746;52.228;20.890;2022-12-11T02:04:21;34.92;;;15.68;;
42084;SDS011;27746;52.228;20.890;2022-12-11T02:06:50;32.30;;;14.02;;
42084;SDS011;27746;52.228;20.890;2022-12-11T02:09:18;31.17;;;13.05;;
42084;SDS011;27746;52.228;20.890;2022-12-11T02:11:52;30.13;;;13.45;;
42084;SDS011;27746;52.228;20.890;2022-12-11T02:14:27;29.23;;;12.88;;
42084;SDS011;27746;52.228;20.890;2022-12-11T02:16:58;31.17;;;14.40;;
42084;SDS011;27746;52.228;20.890;2022-12-11T02:19:37;33.72;;;13.75;;
42084;SDS011;27746;52.228;20.890;2022-12-11T02:22:15;31.42;;;15.48;;
42084;SDS011;27746;52.228;20.890;2022-12-11T02:24:53;35.97;;;14.75;;
42084;SDS011;27746;52.228;20.890;2022-12-11T02:27:31;34.55;;;15.80;;
42084;SDS011;27746;52.228;20.890;2022-12-11T02:30:07;38.38;;;15.05;;
42084;SDS011;27746;52.228;20.890;2022-12-11T02:32:38;33.30;;;14.38;;
42084;SDS011;27746;52.228;20.890;2022-12-11T02:35:11;33.53;;;15.23;;
42084;SDS011;27746;52.228;20.890;2022-12-11T02:37:43;36.67;;;16.00;;
42084;SDS011;27746;52.228;20.890;2022-12-11T02:40:12;36.25;;;16.23;;
42084;SDS011;27746;52.228;20.890;2022-12-11T02:42:44;41.85;;;17.42;;
42084;SDS011;27746;52.228;20.890;2022-12-11T02:45:15;39.42;;;16.40;;
42084;SDS011;27746;52.228;20.890;2022-12-11T02:47:43;39.22;;;17.85;;
42084;SDS011;27746;52.228;20.890;2022-12-11T02:50:14;37.83;;;17.50;;
42084;SDS011;27746;52.228;20.890;2022-12-11T02:52:44;42.42;;;17.15;;
42084;SDS011;27746;52.228;20.890;2022-12-11T02:55:13;43.08;;;19.02;;
42084;SDS011;27746;52.228;20.890;2022-12-11T02:57:41;40.75;;;18.30;;
42084;SDS011;27746;52.228;20.890;2022-12-11T03:00:12;48.63;;;18.23;;
42084;SDS011;27746;52.228;20.890;2022-12-11T03:02:42;45.67;;;20.92;;
42084;SDS011;27746;52.228;20.890;2022-12-11T03:05:10;44.67;;;18.80;;
42084;SDS011;27746;52.228;20.890;2022-12-11T03:07:39;45.00;;;19.63;;
42084;SDS011;27746;52.228;20.890;2022-12-11T03:10:09;46.78;;;19.05;;
42084;SDS011;27746;52.228;20.890;2022-12-11T03:12:43;42.78;;;17.80;;
42084;SDS011;27746;52.228;20.890;2022-12-11T03:15:16;42.88;;;18.05;;
42084;SDS011;27746;52.228;20.890;2022-12-11T03:17:46;44.72;;;18.13;;
42084;SDS011;27746;52.228;20.890;2022-12-11T03:20:23;45.67;;;18.65;;
42084;SDS011;27746;52.228;20.890;2022-12-11T03:22:59;39.83;;;16.42;;
42084;SDS011;27746;52.228;20.890;2022-12-11T03:25:32;44.45;;;19.35;;
42084;SDS011;27746;52.228;20.890;2022-12-11T03:28:06;50.00;;;20.13;;
42084;SDS011;27746;52.228;20.890;2022-12-11T03:30:39;50.75;;;19.60;;
42084;SDS011;27746;52.228;20.890;2022-12-11T03:33:08;41.83;;;19.05;;
42084;SDS011;27746;52.228;20.890;2022-12-11T03:35:39;45.08;;;18.65;;
42084;SDS011;27746;52.228;20.890;2022-12-11T03:38:09;40.70;;;18.75;;
42084;SDS011;27746;52.228;20.890;2022-12-11T03:40:40;49.30;;;19.30;;
42084;SDS011;27746;52.228;20.890;2022-12-11T03:43:10;50.75;;;19.35;;
42084;SDS011;27746;52.228;20.890;2022-12-11T03:45:37;46.03;;;19.65;;
42084;SDS011;27746;52.228;20.890;2022-12-11T03:48:07;49.08;;;19.90;;
42084;SDS011;27746;52.228;20.890;2022-12-11T03:50:35;49.13;;;18.67;;
42084;SDS011;27746;52.228;20.890;2022-12-11T03:53:03;54.75;;;20.75;;
42084;SDS011;27746;52.228;20.890;2022-12-11T03:55:31;55.83;;;19.65;;
42084;SDS011;27746;52.228;20.890;2022-12-11T03:57:58;52.60;;;19.95;;
42084;SDS011;27746;52.228;20.890;2022-12-11T04:00:25;48.80;;;21.35;;
42084;SDS011;27746;52.228;20.890;2022-12-11T04:02:54;47.95;;;19.92;;
42084;SDS011;27746;52.228;20.890;2022-12-11T04:05:41;44.50;;;18.98;;
42084;SDS011;27746;52.228;20.890;2022-12-11T04:08:09;49.75;;;21.17;;
42084;SDS011;27746;52.228;20.890;2022-12-11T04:10:38;45.97;;;20.67;;
42084;SDS011;27746;52.228;20.890;2022-12-11T04:13:05;45.33;;;18.38;;
42084;SDS011;27746;52.228;20.890;2022-12-11T04:15:33;46.30;;;19.20;;
42084;SDS011;27746;52.228;20.890;2022-12-11T04:18:00;52.67;;;20.23;;
42084;SDS011;27746;52.228;20.890;2022-12-11T04:20:44;51.40;;;21.77;;
42084;SDS011;27746;52.228;20.890;2022-12-11T04:23:29;47.13;;;20.63;;
42084;SDS011;27746;52.228;20.890;2022-12-11T04:26:14;52.65;;;21.17;;
42084;SDS011;27746;52.228;20.890;2022-12-11T04:28:43;51.03;;;20.45;;
42084;SDS011;27746;52.228;20.890;2022-12-11T04:31:10;47.40;;;20.58;;
42084;SDS011;27746;52.228;20.890;2022-12-11T04:33:39;47.85;;;20.95;;
42084;SDS011;27746;52.228;20.890;2022-12-11T04:36:08;45.10;;;20.85;;
42084;SDS011;27746;52.228;20.890;2022-12-11T04:38:36;49.05;;;19.30;;
42084;SDS011;27746;52.228;20.890;2022-12-11T04:41:03;47.72;;;20.45;;
42084;SDS011;27746;52.228;20.890;2022-12-11T04:43:32;43.33;;;18.30;;
42084;SDS011;27746;52.228;20.890;2022-12-11T04:45:59;44.60;;;20.70;;
42084;SDS011;27746;52.228;20.890;2022-12-11T04:48:27;44.20;;;19.17;;
42084;SDS011;27746;52.228;20.890;2022-12-11T04:50:55;43.53;;;17.42;;
42084;SDS011;27746;52.228;20.890;2022-12-11T04:53:22;52.13;;;19.13;;
42084;SDS011;27746;52.228;20.890;2022-12-11T04:55:49;42.08;;;16.88;;
42084;SDS011;27746;52.228;20.890;2022-12-11T04:58:16;46.40;;;18.05;;
42084;SDS011;27746;52.228;20.890;2022-12-11T05:00:43;40.53;;;19.33;;
42084;SDS011;27746;52.228;20.890;2022-12-11T05:03:09;47.30;;;18.73;;
42084;SDS011;27746;52.228;20.890;2022-12-11T05:05:39;47.42;;;20.25;;
42084;SDS011;27746;52.228;20.890;2022-12-11T05:08:07;51.67;;;21.13;;
42084;SDS011;27746;52.228;20.890;2022-12-11T05:10:34;43.15;;;19.98;;
42084;SDS011;27746;52.228;20.890;2022-12-11T05:13:01;47.25;;;20.48;;
42084;SDS011;27746;52.228;20.890;2022-12-11T05:15:28;45.22;;;20.00;;
42084;SDS011;27746;52.228;20.890;2022-12-11T05:17:54;46.53;;;20.45;;
42084;SDS011;27746;52.228;20.890;2022-12-11T05:20:21;50.05;;;21.65;;
42084;SDS011;27746;52.228;20.890;2022-12-11T05:22:48;43.60;;;18.83;;
42084;SDS011;27746;52.228;20.890;2022-12-11T05:25:16;55.30;;;21.40;;
42084;SDS011;27746;52.228;20.890;2022-12-11T05:27:43;46.35;;;21.10;;
42084;SDS011;27746;52.228;20.890;2022-12-11T05:30:10;47.30;;;20.75;;
42084;SDS011;27746;52.228;20.890;2022-12-11T05:32:37;48.50;;;20.75;;
42084;SDS011;27746;52.228;20.890;2022-12-11T05:35:04;47.40;;;20.50;;
42084;SDS011;27746;52.228;20.890;2022-12-11T05:37:31;45.80;;;18.83;;
42084;SDS011;27746;52.228;20.890;2022-12-11T05:39:59;50.58;;;20.45;;
42084;SDS011;27746;52.228;20.890;2022-12-11T05:42:27;44.70;;;19.70;;
42084;SDS011;27746;52.228;20.890;2022-12-11T05:44:54;46.08;;;20.15;;
42084;SDS011;27746;52.228;20.890;2022-12-11T05:47:21;50.15;;;20.52;;
42084;SDS011;27746;52.228;20.890;2022-12-11T05:49:48;46.28;;;20.30;;
42084;SDS011;27746;52.228;20.890;2022-12-11T05:52:15;51.08;;;22.20;;
42084;SDS011;27746;52.228;20.890;2022-12-11T05:54:41;42.97;;;20.35;;
42084;SDS011;27746;52.228;20.890;2022-12-11T05:57:08;47.95;;;21.40;;
42084;SDS011;27746;52.228;20.890;2022-12-11T05:59:36;48.25;;;20.98;;
42084;SDS011;27746;52.228;20.890;2022-12-11T06:02:03;46.95;;;19.23;;
42084;SDS011;27746;52.228;20.890;2022-12-11T06:04:30;53.63;;;22.55;;
42084;SDS011;27746;52.228;20.890;2022-12-11T06:06:57;42.35;;;18.83;;
42084;SDS011;27746;52.228;20.890;2022-12-11T06:09:24;46.35;;;19.38;;
42084;SDS011;27746;52.228;20.890;2022-12-11T06:11:50;44.08;;;19.90;;
42084;SDS011;27746;52.228;20.890;2022-12-11T06:14:18;44.35;;;18.10;;
42084;SDS011;27746;52.228;20.890;2022-12-11T06:16:47;40.13;;;18.60;;
42084;SDS011;27746;52.228;20.890;2022-12-11T06:19:14;41.63;;;18.65;;
42084;SDS011;27746;52.228;20.890;2022-12-11T06:21:42;37.90;;;16.13;;
42084;SDS011;27746;52.228;20.890;2022-12-11T06:24:10;44.75;;;18.55;;
42084;SDS011;27746;52.228;20.890;2022-12-11T06:26:38;39.40;;;16.95;;
42084;SDS011;27746;52.228;20.890;2022-12-11T06:29:04;40.55;;;17.83;;
42084;SDS011;27746;52.228;20.890;2022-12-11T06:31:31;39.50;;;17.58;;
42084;SDS011;27746;52.228;20.890;2022-12-11T06:33:59;34.58;;;16.80;;
42084;SDS011;27746;52.228;20.890;2022-12-11T06:36:26;36.92;;;16.30;;
42084;SDS011;27746;52.228;20.890;2022-12-11T06:38:53;37.33;;;16.00;;
42084;SDS011;27746;52.228;20.890;2022-12-11T06:41:20;40.10;;;17.52;;
42084;SDS011;27746;52.228;20.890;2022-12-11T06:43:47;29.65;;;13.90;;
42084;SDS011;27746;52.228;20.890;2022-12-11T06:46:15;34.15;;;17.30;;
42084;SDS011;27746;52.228;20.890;2022-12-11T06:48:43;28.95;;;14.90;;
42084;SDS011;27746;52.228;20.890;2022-12-11T06:51:14;30.95;;;14.23;;
42084;SDS011;27746;52.228;20.890;2022-12-11T06:53:42;30.50;;;14.43;;
42084;SDS011;27746;52.228;20.890;2022-12-11T06:56:10;30.25;;;14.90;;
42084;SDS011;27746;52.228;20.890;2022-12-11T06:58:39;28.63;;;14.25;;
42084;SDS011;27746;52.228;20.890;2022-12-11T07:01:13;26.67;;;13.98;;
42084;SDS011;27746;52.228;20.890;2022-12-11T07:03:41;30.48;;;14.95;;
42084;SDS011;27746;52.228;20.890;2022-12-11T07:06:08;31.30;;;14.85;;
42084;SDS011;27746;52.228;20.890;2022-12-11T07:08:36;33.25;;;15.65;;
42084;SDS011;27746;52.228;20.890;2022-12-11T07:11:03;36.15;;;15.45;;
42084;SDS011;27746;52.228;20.890;2022-12-11T07:13:31;31.92;;;14.57;;
42084;SDS011;27746;52.228;20.890;2022-12-11T07:15:58;32.58;;;15.55;;
42084;SDS011;27746;52.228;20.890;2022-12-11T07:18:26;33.25;;;15.50;;
42084;SDS011;27746;52.228;20.890;2022-12-11T07:20:53;35.65;;;14.25;;
42084;SDS011;27746;52.228;20.890;2022-12-11T07:23:19;32.80;;;14.85;;
42084;SDS011;27746;52.228;20.890;2022-12-11T07:25:48;35.25;;;16.55;;
42084;SDS011;27746;52.228;20.890;2022-12-11T07:28:14;31.52;;;15.48;;
42084;SDS011;27746;52.228;20.890;2022-12-11T07:30:41;36.50;;;16.50;;
42084;SDS011;27746;52.228;20.890;2022-12-11T07:33:08;33.58;;;15.95;;
42084;SDS011;27746;52.228;20.890;2022-12-11T07:35:35;32.97;;;15.35;;
42084;SDS011;27746;52.228;20.890;2022-12-11T07:38:02;27.00;;;14.15;;
42084;SDS011;27746;52.228;20.890;2022-12-11T07:40:29;32.53;;;14.43;;
42084;SDS011;27746;52.228;20.890;2022-12-11T07:42:57;28.83;;;13.95;;
42084;SDS011;27746;52.228;20.890;2022-12-11T07:45:24;33.30;;;12.38;;
42084;SDS011;27746;52.228;20.890;2022-12-11T07:47:51;29.55;;;13.27;;
42084;SDS011;27746;52.228;20.890;2022-12-11T07:50:18;28.70;;;13.30;;
42084;SDS011;27746;52.228;20.890;2022-12-11T07:52:45;22.58;;;12.68;;
42084;SDS011;27746;52.228;20.890;2022-12-11T07:55:12;28.83;;;13.90;;
42084;SDS011;27746;52.228;20.890;2022-12-11T07:57:39;25.52;;;11.57;;
42084;SDS011;27746;52.228;20.890;2022-12-11T08:00:08;26.90;;;12.10;;
42084;SDS011;27746;52.228;20.890;2022-12-11T08:02:35;28.42;;;12.18;;
42084;SDS011;27746;52.228;20.890;2022-12-11T08:05:02;24.30;;;12.05;;
42084;SDS011;27746;52.228;20.890;2022-12-11T08:07:32;28.05;;;11.48;;
42084;SDS011;27746;52.228;20.890;2022-12-11T08:09:59;26.65;;;13.05;;
42084;SDS011;27746;52.228;20.890;2022-12-11T08:12:26;25.38;;;11.63;;
42084;SDS011;27746;52.228;20.890;2022-12-11T08:14:53;26.23;;;13.23;;
42084;SDS011;27746;52.228;20.890;2022-12-11T08:17:21;29.65;;;12.75;;
42084;SDS011;27746;52.228;20.890;2022-12-11T08:19:48;28.70;;;13.18;;
42084;SDS011;27746;52.228;20.890;2022-12-11T08:22:15;27.88;;;11.93;;
42084;SDS011;27746;52.228;20.890;2022-12-11T08:24:41;23.77;;;11.30;;
42084;SDS011;27746;52.228;20.890;2022-12-11T08:27:08;25.98;;;12.32;;
42084;SDS011;27746;52.228;20.890;2022-12-11T08:29:35;26.73;;;12.30;;
42084;SDS011;27746;52.228;20.890;2022-12-11T08:32:02;25.42;;;12.13;;
42084;SDS011;27746;52.228;20.890;2022-12-11T08:34:31;24.13;;;11.50;;
42084;SDS011;27746;52.228;20.890;2022-12-11T08:36:58;24.65;;;11.88;;
42084;SDS011;27746;52.228;20.890;2022-12-11T08:39:25;25.10;;;11.50;;
42084;SDS011;27746;52.228;20.890;2022-12-11T08:41:52;26.20;;;12.68;;
42084;SDS011;27746;52.228;20.890;2022-12-11T08:44:19;24.80;;;11.57;;
42084;SDS011;27746;52.228;20.890;2022-12-11T08:46:49;28.48;;;13.95;;
42084;SDS011;27746;52.228;20.890;2022-12-11T08:49:15;26.25;;;11.82;;
42084;SDS011;27746;52.228;20.890;2022-12-11T08:51:44;28.27;;;14.07;;
42084;SDS011;27746;52.228;20.890;2022-12-11T08:54:10;26.48;;;11.80;;
42084;SDS011;27746;52.228;20.890;2022-12-11T08:56:37;26.88;;;14.10;;
42084;SDS011;27746;52.228;20.890;2022-12-11T08:59:04;29.08;;;14.95;;
42084;SDS011;27746;52.228;20.890;2022-12-11T09:01:31;26.13;;;12.45;;
42084;SDS011;27746;52.228;20.890;2022-12-11T09:03:58;27.65;;;11.80;;
42084;SDS011;27746;52.228;20.890;2022-12-11T09:06:26;23.13;;;11.18;;
42084;SDS011;27746;52.228;20.890;2022-12-11T09:08:57;24.30;;;11.73;;
42084;SDS011;27746;52.228;20.890;2022-12-11T09:11:26;24.73;;;11.02;;
42084;SDS011;27746;52.228;20.890;2022-12-11T09:13:54;23.50;;;10.35;;
42084;SDS011;27746;52.228;20.890;2022-12-11T09:16:24;21.83;;;10.48;;
42084;SDS011;27746;52.228;20.890;2022-12-11T09:18:52;21.77;;;10.93;;
42084;SDS011;27746;52.228;20.890;2022-12-11T09:21:21;23.55;;;11.50;;
42084;SDS011;27746;52.228;20.890;2022-12-11T09:23:51;25.30;;;11.52;;
42084;SDS011;27746;52.228;20.890;2022-12-11T09:26:20;20.98;;;10.27;;
42084;SDS011;27746;52.228;20.890;2022-12-11T09:28:47;26.60;;;10.88;;
42084;SDS011;27746;52.228;20.890;2022-12-11T09:31:18;24.85;;;11.10;;
42084;SDS011;27746;52.228;20.890;2022-12-11T09:33:48;23.73;;;11.40;;
42084;SDS011;27746;52.228;20.890;2022-12-11T09:36:16;21.77;;;10.18;;
42084;SDS011;27746;52.228;20.890;2022-12-11T09:38:43;21.40;;;10.35;;
42084;SDS011;27746;52.228;20.890;2022-12-11T09:41:25;21.23;;;10.60;;
42084;SDS011;27746;52.228;20.890;2022-12-11T09:44:00;20.40;;;9.75;;
42084;SDS011;27746;52.228;20.890;2022-12-11T09:46:37;23.20;;;11.18;;
42084;SDS011;27746;52.228;20.890;2022-12-11T09:49:08;22.92;;;10.48;;
42084;SDS011;27746;52.228;20.890;2022-12-11T09:51:43;26.90;;;11.75;;
42084;SDS011;27746;52.228;20.890;2022-12-11T09:54:15;25.35;;;11.63;;
42084;SDS011;27746;52.228;20.890;2022-12-11T09:56:45;23.45;;;11.02;;
42084;SDS011;27746;52.228;20.890;2022-12-11T09:59:22;18.20;;;10.43;;
42084;SDS011;27746;52.228;20.890;2022-12-11T10:01:58;26.20;;;12.25;;
42084;SDS011;27746;52.228;20.890;2022-12-11T10:04:37;25.25;;;11.25;;
42084;SDS011;27746;52.228;20.890;2022-12-11T10:07:13;24.75;;;11.00;;
42084;SDS011;27746;52.228;20.890;2022-12-11T10:09:46;24.13;;;11.43;;
42084;SDS011;27746;52.228;20.890;2022-12-11T10:12:25;25.73;;;12.82;;
42084;SDS011;27746;52.228;20.890;2022-12-11T10:15:08;26.40;;;14.10;;
42084;SDS011;27746;52.228;20.890;2022-12-11T10:17:44;28.85;;;12.18;;
42084;SDS011;27746;52.228;20.890;2022-12-11T10:20:17;27.85;;;13.32;;
42084;SDS011;27746;52.228;20.890;2022-12-11T10:22:47;21.85;;;11.43;;
42084;SDS011;27746;52.228;20.890;2022-12-11T10:25:18;26.60;;;12.23;;
42084;SDS011;27746;52.228;20.890;2022-12-11T10:27:48;27.95;;;11.95;;
42084;SDS011;27746;52.228;20.890;2022-12-11T10:30:16;23.85;;;12.80;;
42084;SDS011;27746;52.228;20.890;2022-12-11T10:32:49;23.52;;;11.20;;
42084;SDS011;27746;52.228;20.890;2022-12-11T10:35:19;27.30;;;12.15;;
42084;SDS011;27746;52.228;20.890;2022-12-11T10:37:54;30.58;;;12.20;;
42084;SDS011;27746;52.228;20.890;2022-12-11T10:40:25;22.00;;;11.00;;
42084;SDS011;27746;52.228;20.890;2022-12-11T10:42:57;25.83;;;12.18;;
42084;SDS011;27746;52.228;20.890;2022-12-11T10:45:24;22.98;;;11.07;;
42084;SDS011;27746;52.228;20.890;2022-12-11T10:48:00;24.77;;;12.88;;
42084;SDS011;27746;52.228;20.890;2022-12-11T10:50:28;20.55;;;10.02;;
42084;SDS011;27746;52.228;20.890;2022-12-11T10:52:55;22.13;;;10.30;;
42084;SDS011;27746;52.228;20.890;2022-12-11T10:55:23;21.80;;;10.73;;
42084;SDS011;27746;52.228;20.890;2022-12-11T10:57:53;24.60;;;10.85;;
42084;SDS011;27746;52.228;20.890;2022-12-11T11:00:29;23.13;;;11.48;;
42084;SDS011;27746;52.228;20.890;2022-12-11T11:02:59;20.80;;;9.98;;
42084;SDS011;27746;52.228;20.890;2022-12-11T11:05:28;23.85;;;10.63;;
42084;SDS011;27746;52.228;20.890;2022-12-11T11:08:01;25.13;;;11.15;;
42084;SDS011;27746;52.228;20.890;2022-12-11T11:10:37;21.05;;;10.25;;
42084;SDS011;27746;52.228;20.890;2022-12-11T11:13:15;22.48;;;10.43;;
42084;SDS011;27746;52.228;20.890;2022-12-11T11:15:43;21.52;;;9.98;;
42084;SDS011;27746;52.228;20.890;2022-12-11T11:18:11;22.00;;;11.02;;
42084;SDS011;27746;52.228;20.890;2022-12-11T11:20:46;24.77;;;11.05;;
42084;SDS011;27746;52.228;20.890;2022-12-11T11:23:13;26.35;;;11.77;;
42084;SDS011;27746;52.228;20.890;2022-12-11T11:25:47;23.65;;;10.95;;
42084;SDS011;27746;52.228;20.890;2022-12-11T11:28:17;25.38;;;10.45;;
42084;SDS011;27746;52.228;20.890;2022-12-11T11:30:56;20.10;;;10.32;;
42084;SDS011;27746;52.228;20.890;2022-12-11T11:33:26;24.67;;;10.75;;
42084;SDS011;27746;52.228;20.890;2022-12-11T11:35:56;24.02;;;11.25;;
42084;SDS011;27746;52.228;20.890;2022-12-11T11:38:26;21.77;;;10.68;;
42084;SDS011;27746;52.228;20.890;2022-12-11T11:40:57;20.05;;;10.80;;
42084;SDS011;27746;52.228;20.890;2022-12-11T11:43:31;23.33;;;11.15;;
42084;SDS011;27746;52.228;20.890;2022-12-11T11:46:05;22.67;;;10.80;;
42084;SDS011;27746;52.228;20.890;2022-12-11T11:48:39;26.48;;;11.93;;
42084;SDS011;27746;52.228;20.890;2022-12-11T11:51:12;22.13;;;10.98;;
42084;SDS011;27746;52.228;20.890;2022-12-11T11:53:42;23.13;;;10.45;;
42084;SDS011;27746;52.228;20.890;2022-12-11T11:56:16;21.10;;;9.97;;
42084;SDS011;27746;52.228;20.890;2022-12-11T11:58:48;24.50;;;11.50;;
42084;SDS011;27746;52.228;20.890;2022-12-11T12:01:22;22.75;;;10.30;;
42084;SDS011;27746;52.228;20.890;2022-12-11T12:03:49;23.70;;;11.23;;
42084;SDS011;27746;52.228;20.890;2022-12-11T12:06:19;22.20;;;10.27;;
42084;SDS011;27746;52.228;20.890;2022-12-11T12:08:54;24.80;;;10.68;;
42084;SDS011;27746;52.228;20.890;2022-12-11T12:11:29;23.05;;;10.98;;
42084;SDS011;27746;52.228;20.890;2022-12-11T12:14:06;22.60;;;10.60;;
42084;SDS011;27746;52.228;20.890;2022-12-11T12:16:41;21.88;;;10.43;;
42084;SDS011;27746;52.228;20.890;2022-12-11T12:19:15;24.30;;;11.52;;
42084;SDS011;27746;52.228;20.890;2022-12-11T12:21:55;25.45;;;12.00;;
42084;SDS011;27746;52.228;20.890;2022-12-11T12:24:31;24.48;;;11.32;;
42084;SDS011;27746;52.228;20.890;2022-12-11T12:27:12;21.45;;;10.10;;
42084;SDS011;27746;52.228;20.890;2022-12-11T12:29:47;22.80;;;11.20;;
42084;SDS011;27746;52.228;20.890;2022-12-11T12:32:26;23.77;;;12.02;;
42084;SDS011;27746;52.228;20.890;2022-12-11T12:35:03;24.38;;;11.50;;
42084;SDS011;27746;52.228;20.890;2022-12-11T12:37:41;27.13;;;12.70;;
42084;SDS011;27746;52.228;20.890;2022-12-11T12:40:13;24.10;;;11.23;;
42084;SDS011;27746;52.228;20.890;2022-12-11T12:42:49;23.60;;;12.48;;
42084;SDS011;27746;52.228;20.890;2022-12-11T12:47:53;21.48;;;11.23;;
42084;SDS011;27746;52.228;20.890;2022-12-11T12:50:21;27.17;;;12.10;;
42084;SDS011;27746;52.228;20.890;2022-12-11T12:52:51;23.45;;;10.65;;
42084;SDS011;27746;52.228;20.890;2022-12-11T12:55:20;20.92;;;11.00;;
42084;SDS011;27746;52.228;20.890;2022-12-11T12:57:49;21.70;;;10.63;;
42084;SDS011;27746;52.228;20.890;2022-12-11T13:00:25;21.15;;;10.90;;
42084;SDS011;27746;52.228;20.890;2022-12-11T13:02:55;21.77;;;9.70;;
42084;SDS011;27746;52.228;20.890;2022-12-11T13:05:24;21.48;;;11.18;;
42084;SDS011;27746;52.228;20.890;2022-12-11T13:07:53;19.80;;;10.60;;
42084;SDS011;27746;52.228;20.890;2022-12-11T13:10:23;22.75;;;11.65;;
42084;SDS011;27746;52.228;20.890;2022-12-11T13:12:53;22.95;;;12.02;;
42084;SDS011;27746;52.228;20.890;2022-12-11T13:20:58;21.75;;;11.05;;
42084;SDS011;27746;52.228;20.890;2022-12-11T13:23:25;21.75;;;11.23;;
42084;SDS011;27746;52.228;20.890;2022-12-11T13:25:54;20.65;;;10.57;;
42084;SDS011;27746;52.228;20.890;2022-12-11T13:28:26;25.00;;;11.90;;
42084;SDS011;27746;52.228;20.890;2022-12-11T13:31:02;21.27;;;10.45;;
42084;SDS011;27746;52.228;20.890;2022-12-11T13:33:38;22.40;;;10.65;;
42084;SDS011;27746;52.228;20.890;2022-12-11T13:39:03;24.73;;;12.80;;
42084;SDS011;27746;52.228;20.890;2022-12-11T13:41:35;21.20;;;10.77;;
42084;SDS011;27746;52.228;20.890;2022-12-11T13:44:03;19.92;;;9.77;;
42084;SDS011;27746;52.228;20.890;2022-12-11T13:46:33;22.45;;;11.27;;
42084;SDS011;27746;52.228;20.890;2022-12-11T13:49:05;20.15;;;9.75;;
42084;SDS011;27746;52.228;20.890;2022-12-11T13:51:33;25.20;;;11.60;;
42084;SDS011;27746;52.228;20.890;2022-12-11T13:54:05;24.13;;;10.38;;
42084;SDS011;27746;52.228;20.890;2022-12-11T13:56:39;19.83;;;10.93;;
42084;SDS011;27746;52.228;20.890;2022-12-11T13:59:17;18.58;;;9.48;;
42084;SDS011;27746;52.228;20.890;2022-12-11T14:01:48;20.50;;;10.40;;
42084;SDS011;27746;52.228;20.890;2022-12-11T14:04:18;19.48;;;9.55;;
42084;SDS011;27746;52.228;20.890;2022-12-11T14:06:46;19.83;;;10.00;;
42084;SDS011;27746;52.228;20.890;2022-12-11T14:09:14;17.95;;;9.32;;
42084;SDS011;27746;52.228;20.890;2022-12-11T14:11:45;21.90;;;11.32;;
42084;SDS011;27746;52.228;20.890;2022-12-11T14:14:17;19.20;;;10.07;;
42084;SDS011;27746;52.228;20.890;2022-12-11T14:16:46;17.50;;;10.38;;
42084;SDS011;27746;52.228;20.890;2022-12-11T14:19:16;19.33;;;9.55;;
42084;SDS011;27746;52.228;20.890;2022-12-11T14:21:53;17.63;;;9.90;;
42084;SDS011;27746;52.228;20.890;2022-12-11T14:24:21;19.92;;;9.30;;
42084;SDS011;27746;52.228;20.890;2022-12-11T14:26:49;19.35;;;9.80;;
42084;SDS011;27746;52.228;20.890;2022-12-11T14:29:22;23.63;;;11.50;;
42084;SDS011;27746;52.228;20.890;2022-12-11T14:31:53;20.10;;;10.63;;
42084;SDS011;27746;52.228;20.890;2022-12-11T14:34:24;21.45;;;10.55;;